Time,TemperatureF,DewpointF,PressureIn,WindDirection,WindDirectionDegrees,WindSpeedMPH,WindSpeedGustMPH,Humidity,HourlyPrecipIn,Conditions,Clouds,dailyrainin,SoftwareType,DateUTC
2013-01-22 00:00:00,15.4,10.4,29.98,West,281,33.0,47.0,80,0.00,,,0.00,meteohub,2013-01-22 05:00:00,
2013-01-22 00:01:00,15.4,10.0,29.98,West,280,34.0,47.0,79,0.00,,,0.00,meteohub,2013-01-22 05:01:00,
2013-01-22 00:02:00,15.3,9.9,29.99,WNW,284,35.0,47.0,79,0.00,,,0.00,meteohub,2013-01-22 05:02:00,
2013-01-22 00:08:00,15.3,9.9,29.99,WNW,284,27.0,47.0,79,0.00,,,0.00,meteohub,2013-01-22 05:08:00,
2013-01-22 00:13:00,15.4,8.4,29.98,West,269,27.0,45.0,73,0.00,,,0.00,meteohub,2013-01-22 05:13:00,
2013-01-22 00:18:00,15.8,8.1,29.99,West,275,29.0,45.0,71,0.00,,,0.00,meteohub,2013-01-22 05:18:00,
2013-01-22 00:23:00,14.9,9.3,29.99,West,268,30.0,45.0,78,0.00,,,0.00,meteohub,2013-01-22 05:23:00,
2013-01-22 00:28:00,15.3,8.8,29.98,West,275,31.0,41.0,75,0.00,,,0.00,meteohub,2013-01-22 05:28:00,
2013-01-22 00:33:00,15.1,9.1,29.99,West,275,31.0,41.0,77,0.00,,,0.00,meteohub,2013-01-22 05:33:00,
2013-01-22 00:38:00,15.3,9.7,29.98,WNW,284,33.0,41.0,78,0.00,,,0.00,meteohub,2013-01-22 05:38:00,
2013-01-22 00:43:00,14.4,7.0,29.99,West,273,32.0,41.0,72,0.00,,,0.00,meteohub,2013-01-22 05:43:00,
2013-01-22 00:48:00,14.5,9.9,29.98,West,271,32.0,40.0,81,0.00,,,0.00,meteohub,2013-01-22 05:48:00,
2013-01-22 00:53:00,14.5,10.0,29.98,West,279,28.0,40.0,82,0.00,,,0.00,meteohub,2013-01-22 05:53:00,
2013-01-22 00:58:00,13.5,9.9,29.99,WNW,283,32.0,39.0,85,0.00,,,0.00,meteohub,2013-01-22 05:58:00,
2013-01-22 01:03:00,12.7,9.7,29.99,West,281,32.0,40.0,87,0.00,,,0.00,meteohub,2013-01-22 06:03:00,
2013-01-22 01:09:00,13.5,10.8,29.99,West,281,29.0,40.0,89,0.00,,,0.00,meteohub,2013-01-22 06:09:00,
2013-01-22 01:14:00,13.5,10.6,29.99,WNW,292,23.0,40.0,88,0.00,,,0.00,meteohub,2013-01-22 06:14:00,
2013-01-22 01:19:00,14.2,10.2,29.99,WNW,282,24.0,35.0,84,0.00,,,0.00,meteohub,2013-01-22 06:19:00,
2013-01-22 01:24:00,14.2,9.0,29.99,WNW,283,31.0,35.0,79,0.00,,,0.00,meteohub,2013-01-22 06:24:00,
2013-01-22 01:29:00,13.5,7.9,29.99,WNW,292,28.0,39.0,78,0.00,,,0.00,meteohub,2013-01-22 06:29:00,
2013-01-22 01:34:00,13.6,8.6,30.00,West,274,32.0,39.0,80,0.00,,,0.00,meteohub,2013-01-22 06:34:00,
2013-01-22 01:39:00,14.2,9.7,30.00,WNW,284,30.0,39.0,82,0.00,,,0.00,meteohub,2013-01-22 06:39:00,
2013-01-22 01:44:00,13.1,7.5,30.01,WNW,302,31.0,39.0,78,0.00,,,0.00,meteohub,2013-01-22 06:44:00,
2013-01-22 01:49:00,13.3,7.3,30.01,West,271,32.0,41.0,77,0.00,,,0.00,meteohub,2013-01-22 06:49:00,
2013-01-22 01:54:00,13.3,6.6,30.01,West,279,36.0,41.0,74,0.00,,,0.00,meteohub,2013-01-22 06:54:00,
2013-01-22 01:59:00,12.9,7.3,30.01,West,277,32.0,41.0,78,0.00,,,0.00,meteohub,2013-01-22 06:59:00,
2013-01-22 02:04:00,13.5,6.1,30.01,WNW,294,33.0,42.0,72,0.00,,,0.00,meteohub,2013-01-22 07:04:00,
2013-01-22 02:09:00,13.5,5.2,30.01,WNW,286,28.0,42.0,69,0.00,,,0.00,meteohub,2013-01-22 07:09:00,
2013-01-22 02:15:00,13.5,5.9,30.02,West,274,29.0,39.0,71,0.00,,,0.00,meteohub,2013-01-22 07:15:00,
2013-01-22 02:20:00,13.3,5.4,30.02,WNW,284,30.0,37.0,70,0.00,,,0.00,meteohub,2013-01-22 07:20:00,
2013-01-22 02:25:00,12.9,6.3,30.02,WNW,291,27.0,39.0,74,0.00,,,0.00,meteohub,2013-01-22 07:25:00,
2013-01-22 02:30:00,12.4,7.3,30.03,West,274,30.0,39.0,80,0.00,,,0.00,meteohub,2013-01-22 07:30:00,
2013-01-22 02:35:00,12.6,7.9,30.03,WNW,293,29.0,40.0,81,0.00,,,0.00,meteohub,2013-01-22 07:35:00,
2013-01-22 02:40:00,12.6,8.1,30.03,WNW,292,32.0,40.0,82,0.00,,,0.00,meteohub,2013-01-22 07:40:00,
2013-01-22 02:45:00,12.7,8.8,30.03,West,281,26.0,40.0,84,0.00,,,0.00,meteohub,2013-01-22 07:45:00,
2013-01-22 02:50:00,12.7,7.5,30.03,West,281,29.0,40.0,79,0.00,,,0.00,meteohub,2013-01-22 07:50:00,
2013-01-22 02:55:00,12.7,7.7,30.03,WNW,298,27.0,38.0,80,0.00,,,0.00,meteohub,2013-01-22 07:55:00,
2013-01-22 03:00:00,13.3,8.6,30.03,WNW,286,29.0,38.0,81,0.00,,,0.00,meteohub,2013-01-22 08:00:00,
2013-01-22 03:05:00,12.7,7.5,30.03,WNW,286,37.0,38.0,79,0.00,,,0.00,meteohub,2013-01-22 08:05:00,
2013-01-22 03:10:00,12.6,7.9,30.03,WNW,283,37.0,40.0,81,0.00,,,0.00,meteohub,2013-01-22 08:10:00,
2013-01-22 03:15:00,12.6,7.0,30.04,WNW,289,23.0,40.0,78,0.00,,,0.00,meteohub,2013-01-22 08:15:00,
2013-01-22 03:20:00,12.4,8.2,30.04,West,280,32.0,40.0,83,0.00,,,0.00,meteohub,2013-01-22 08:20:00,
2013-01-22 03:25:00,12.4,5.9,30.04,WNW,296,26.0,40.0,75,0.00,,,0.00,meteohub,2013-01-22 08:25:00,
2013-01-22 03:30:00,12.9,7.3,30.04,WNW,286,33.0,37.0,78,0.00,,,0.00,meteohub,2013-01-22 08:30:00,
2013-01-22 03:36:00,12.4,6.6,30.04,West,279,35.0,39.0,77,0.00,,,0.00,meteohub,2013-01-22 08:36:00,
2013-01-22 03:41:00,12.0,6.4,30.04,WNW,290,29.0,39.0,78,0.00,,,0.00,meteohub,2013-01-22 08:41:00,
2013-01-22 03:46:00,12.0,7.9,30.04,West,281,27.0,40.0,83,0.00,,,0.00,meteohub,2013-01-22 08:46:00,
2013-01-22 03:51:00,11.3,7.9,30.04,WNW,287,32.0,40.0,86,0.00,,,0.00,meteohub,2013-01-22 08:51:00,
2013-01-22 03:56:00,12.0,7.0,30.04,WNW,288,31.0,40.0,80,0.00,,,0.00,meteohub,2013-01-22 08:56:00,
2013-01-22 04:01:00,12.6,6.4,30.04,WNW,289,24.0,40.0,76,0.00,,,0.00,meteohub,2013-01-22 09:01:00,
2013-01-22 04:06:00,12.4,5.4,30.05,WNW,292,33.0,40.0,73,0.00,,,0.00,meteohub,2013-01-22 09:06:00,
2013-01-22 04:11:00,11.7,5.9,30.05,WNW,287,25.0,40.0,77,0.00,,,0.00,meteohub,2013-01-22 09:11:00,
2013-01-22 04:16:00,12.4,5.7,30.04,WNW,282,31.0,40.0,74,0.00,,,0.00,meteohub,2013-01-22 09:16:00,
2013-01-22 04:21:00,12.6,5.2,30.05,West,280,33.0,44.0,72,0.00,,,0.00,meteohub,2013-01-22 09:21:00,
2013-01-22 04:26:00,12.6,6.1,30.04,WNW,294,24.0,44.0,75,0.00,,,0.00,meteohub,2013-01-22 09:26:00,
2013-01-22 04:31:00,12.4,5.4,30.05,WNW,285,38.0,44.0,73,0.00,,,0.00,meteohub,2013-01-22 09:31:00,
2013-01-22 04:36:00,12.6,5.5,30.05,West,277,37.0,40.0,73,0.00,,,0.00,meteohub,2013-01-22 09:36:00,
2013-01-22 04:41:00,12.0,5.0,30.05,NW,309,32.0,42.0,73,0.00,,,0.00,meteohub,2013-01-22 09:41:00,
2013-01-22 04:47:00,12.6,5.9,30.04,NW,306,35.0,42.0,74,0.00,,,0.00,meteohub,2013-01-22 09:47:00,
2013-01-22 04:52:00,12.6,5.0,30.05,WNW,291,31.0,42.0,71,0.00,,,0.00,meteohub,2013-01-22 09:52:00,
2013-01-22 04:57:00,11.8,6.6,30.06,WNW,283,28.0,40.0,79,0.00,,,0.00,meteohub,2013-01-22 09:57:00,
2013-01-22 05:02:00,11.5,7.5,30.06,WNW,287,28.0,41.0,84,0.00,,,0.00,meteohub,2013-01-22 10:02:00,
2013-01-22 05:07:00,11.5,7.9,30.06,WNW,292,25.0,41.0,85,0.00,,,0.00,meteohub,2013-01-22 10:07:00,
2013-01-22 05:12:00,11.1,7.7,30.06,WNW,294,29.0,41.0,86,0.00,,,0.00,meteohub,2013-01-22 10:12:00,
2013-01-22 05:17:00,10.9,8.1,30.06,WNW,288,25.0,36.0,88,0.00,,,0.00,meteohub,2013-01-22 10:17:00,
2013-01-22 05:22:00,10.8,7.9,30.06,WNW,287,28.0,36.0,88,0.00,,,0.00,meteohub,2013-01-22 10:22:00,
2013-01-22 05:27:00,10.8,8.2,30.06,WNW,288,29.0,39.0,89,0.00,,,0.00,meteohub,2013-01-22 10:27:00,
2013-01-22 05:32:00,11.1,8.6,30.06,WNW,287,31.0,40.0,89,0.00,,,0.00,meteohub,2013-01-22 10:32:00,
2013-01-22 05:37:00,11.1,8.6,30.06,WNW,286,33.0,40.0,89,0.00,,,0.00,meteohub,2013-01-22 10:37:00,
2013-01-22 05:42:00,10.9,8.4,30.06,WNW,300,30.0,40.0,89,0.00,,,0.00,meteohub,2013-01-22 10:42:00,
2013-01-22 05:47:00,10.8,8.2,30.06,WNW,298,29.0,38.0,89,0.00,,,0.00,meteohub,2013-01-22 10:47:00,
2013-01-22 05:52:00,10.8,8.2,30.07,WNW,283,27.0,38.0,89,0.00,,,0.00,meteohub,2013-01-22 10:52:00,
2013-01-22 05:57:00,10.6,8.2,30.07,WNW,286,26.0,38.0,90,0.00,,,0.00,meteohub,2013-01-22 10:57:00,
2013-01-22 06:02:00,9.9,7.5,30.08,WNW,292,27.0,36.0,90,0.00,,,0.00,meteohub,2013-01-22 11:02:00,
2013-01-22 06:07:00,10.2,7.9,30.08,WNW,298,28.0,39.0,90,0.00,,,0.00,meteohub,2013-01-22 11:07:00,
2013-01-22 06:12:00,10.6,8.1,30.08,WNW,298,31.0,39.0,89,0.00,,,0.00,meteohub,2013-01-22 11:12:00,
2013-01-22 06:17:00,10.2,7.3,30.09,WNW,302,33.0,39.0,88,0.00,,,0.00,meteohub,2013-01-22 11:17:00,
2013-01-22 06:22:00,10.2,7.3,30.09,WNW,285,28.0,39.0,88,0.00,,,0.00,meteohub,2013-01-22 11:22:00,
2013-01-22 06:27:00,10.6,7.2,30.09,WNW,303,24.0,39.0,86,0.00,,,0.00,meteohub,2013-01-22 11:27:00,
2013-01-22 06:32:00,10.2,6.6,30.09,WNW,298,33.0,40.0,85,0.00,,,0.00,meteohub,2013-01-22 11:32:00,
2013-01-22 06:37:00,9.9,5.5,30.09,NW,306,28.0,40.0,82,0.00,,,0.00,meteohub,2013-01-22 11:37:00,
2013-01-22 06:42:00,10.6,6.6,30.09,West,281,32.0,44.0,84,0.00,,,0.00,meteohub,2013-01-22 11:42:00,
2013-01-22 06:47:00,10.2,6.6,30.10,WNW,296,32.0,44.0,85,0.00,,,0.00,meteohub,2013-01-22 11:47:00,
2013-01-22 06:52:00,9.9,6.3,30.10,WNW,292,31.0,44.0,85,0.00,,,0.00,meteohub,2013-01-22 11:52:00,
2013-01-22 06:57:00,9.9,6.1,30.10,West,281,25.0,39.0,84,0.00,,,0.00,meteohub,2013-01-22 11:57:00,
2013-01-22 07:02:00,9.7,5.5,30.10,WNW,300,34.0,39.0,83,0.00,,,0.00,meteohub,2013-01-22 12:02:00,
2013-01-22 07:07:00,9.9,5.5,30.11,WNW,293,28.0,41.0,82,0.00,,,0.00,meteohub,2013-01-22 12:07:00,
2013-01-22 07:12:00,9.7,5.4,30.11,WNW,290,28.0,41.0,82,0.00,,,0.00,meteohub,2013-01-22 12:12:00,
2013-01-22 07:17:00,10.4,6.6,30.11,WNW,286,35.0,41.0,84,0.00,,,0.00,meteohub,2013-01-22 12:17:00,
2013-01-22 07:23:00,10.2,4.8,30.11,WNW,285,31.0,44.0,78,0.00,,,0.00,meteohub,2013-01-22 12:23:00,
2013-01-22 07:28:00,9.9,4.1,30.11,WNW,282,40.0,44.0,77,0.00,,,0.00,meteohub,2013-01-22 12:28:00,
2013-01-22 07:33:00,9.9,3.7,30.12,WNW,283,34.0,44.0,76,0.00,,,0.00,meteohub,2013-01-22 12:33:00,
2013-01-22 07:38:00,9.7,2.5,30.12,WNW,287,34.0,41.0,72,0.00,,,0.00,meteohub,2013-01-22 12:38:00,
2013-01-22 07:43:00,9.7,2.1,30.12,WNW,290,33.0,41.0,71,0.00,,,0.00,meteohub,2013-01-22 12:43:00,
2013-01-22 07:48:00,9.9,2.7,30.12,WNW,283,33.0,44.0,72,0.00,,,0.00,meteohub,2013-01-22 12:48:00,
2013-01-22 07:53:00,9.9,3.6,30.12,WNW,303,33.0,44.0,75,0.00,,,0.00,meteohub,2013-01-22 12:53:00,
2013-01-22 07:58:00,9.7,2.8,30.12,West,279,32.0,44.0,73,0.00,,,0.00,meteohub,2013-01-22 12:58:00,
2013-01-22 08:03:00,9.9,4.1,30.12,WNW,286,33.0,40.0,77,0.00,,,0.00,meteohub,2013-01-22 13:03:00,
2013-01-22 08:08:00,9.9,3.2,30.12,West,277,34.0,42.0,74,0.00,,,0.00,meteohub,2013-01-22 13:08:00,
2013-01-22 08:13:00,9.7,2.8,30.12,WNW,283,28.0,42.0,73,0.00,,,0.00,meteohub,2013-01-22 13:13:00,
2013-01-22 08:18:00,10.0,3.9,30.12,WNW,285,32.0,42.0,76,0.00,,,0.00,meteohub,2013-01-22 13:18:00,
2013-01-22 08:24:00,10.0,3.7,30.12,WNW,298,37.0,45.0,75,0.00,,,0.00,meteohub,2013-01-22 13:24:00,
2013-01-22 08:29:00,9.9,3.0,30.12,West,281,30.0,45.0,73,0.00,,,0.00,meteohub,2013-01-22 13:29:00,
2013-01-22 08:34:00,10.0,3.7,30.12,West,281,36.0,40.0,75,0.00,,,0.00,meteohub,2013-01-22 13:34:00,
2013-01-22 08:39:00,10.2,4.1,30.12,WNW,292,34.0,41.0,76,0.00,,,0.00,meteohub,2013-01-22 13:39:00,
2013-01-22 08:44:00,9.3,4.1,30.13,WNW,282,40.0,41.0,79,0.00,,,0.00,meteohub,2013-01-22 13:44:00,
2013-01-22 08:49:00,9.9,5.0,30.13,West,277,38.0,42.0,80,0.00,,,0.00,meteohub,2013-01-22 13:49:00,
2013-01-22 08:54:00,9.1,4.8,30.14,WNW,294,28.0,44.0,82,0.00,,,0.00,meteohub,2013-01-22 13:54:00,
2013-01-22 08:59:00,9.7,4.8,30.14,WNW,284,36.0,45.0,80,0.00,,,0.00,meteohub,2013-01-22 13:59:00,
2013-01-22 09:04:00,9.5,4.1,30.14,WNW,296,34.0,45.0,78,0.00,,,0.00,meteohub,2013-01-22 14:04:00,
2013-01-22 09:09:00,9.1,2.5,30.13,West,280,33.0,45.0,74,0.00,,,0.00,meteohub,2013-01-22 14:09:00,
2013-01-22 09:14:00,9.3,2.7,30.14,WNW,285,36.0,44.0,74,0.00,,,0.00,meteohub,2013-01-22 14:14:00,
2013-01-22 09:19:00,9.7,2.5,30.14,West,274,37.0,44.0,72,0.00,,,0.00,meteohub,2013-01-22 14:19:00,
2013-01-22 09:25:00,9.7,3.0,30.14,West,281,30.0,44.0,74,0.00,,,0.00,meteohub,2013-01-22 14:25:00,
2013-01-22 09:30:00,9.3,4.1,30.15,NW,309,36.0,43.0,79,0.00,,,0.00,meteohub,2013-01-22 14:30:00,
2013-01-22 09:35:00,8.8,5.2,30.15,WNW,283,33.0,41.0,85,0.00,,,0.00,meteohub,2013-01-22 14:35:00,
2013-01-22 09:40:00,8.2,5.2,30.15,WNW,302,31.0,42.0,87,0.00,,,0.00,meteohub,2013-01-22 14:40:00,
2013-01-22 09:45:00,7.9,4.8,30.15,West,275,28.0,42.0,87,0.00,,,0.00,meteohub,2013-01-22 14:45:00,
2013-01-22 09:50:00,8.2,5.4,30.16,WNW,292,33.0,41.0,88,0.00,,,0.00,meteohub,2013-01-22 14:50:00,
2013-01-22 09:55:00,7.9,4.8,30.16,WNW,286,32.0,41.0,87,0.00,,,0.00,meteohub,2013-01-22 14:55:00,
2013-01-22 10:00:00,8.2,5.0,30.17,WNW,285,28.0,42.0,86,0.00,,,0.00,meteohub,2013-01-22 15:00:00,
2013-01-22 10:05:00,8.2,5.0,30.17,WNW,293,33.0,44.0,86,0.00,,,0.00,meteohub,2013-01-22 15:05:00,
2013-01-22 10:10:00,7.9,4.3,30.17,WNW,298,31.0,44.0,85,0.00,,,0.00,meteohub,2013-01-22 15:10:00,
2013-01-22 10:16:00,7.9,4.6,30.17,WNW,298,33.0,44.0,86,0.00,,,0.00,meteohub,2013-01-22 15:16:00,
2013-01-22 10:21:00,7.3,3.7,30.18,WNW,290,26.0,44.0,85,0.00,,,0.00,meteohub,2013-01-22 15:21:00,
2013-01-22 10:26:00,7.3,3.6,30.18,WNW,283,30.0,44.0,84,0.00,,,0.00,meteohub,2013-01-22 15:26:00,
2013-01-22 10:32:00,7.3,3.0,30.19,WNW,298,33.0,43.0,82,0.00,,,0.00,meteohub,2013-01-22 15:32:00,
2013-01-22 10:37:00,7.3,2.5,30.19,WNW,296,29.0,40.0,80,0.00,,,0.00,meteohub,2013-01-22 15:37:00,
2013-01-22 10:42:00,7.5,2.3,30.19,WNW,298,35.0,40.0,79,0.00,,,0.00,meteohub,2013-01-22 15:42:00,
2013-01-22 10:47:00,8.1,2.8,30.19,West,278,27.0,40.0,79,0.00,,,0.00,meteohub,2013-01-22 15:47:00,
2013-01-22 10:52:00,7.9,2.5,30.19,NW,309,27.0,37.0,78,0.00,,,0.00,meteohub,2013-01-22 15:52:00,
2013-01-22 10:57:00,7.5,1.6,30.19,WNW,290,26.0,37.0,76,0.00,,,0.00,meteohub,2013-01-22 15:57:00,
2013-01-22 11:02:00,7.7,1.8,30.19,WNW,286,35.0,39.0,76,0.00,,,0.00,meteohub,2013-01-22 16:02:00,
2013-01-22 11:07:00,7.3,1.4,30.20,West,279,31.0,39.0,76,0.00,,,0.00,meteohub,2013-01-22 16:07:00,
2013-01-22 11:12:00,7.5,1.8,30.20,WNW,289,30.0,40.0,77,0.00,,,0.00,meteohub,2013-01-22 16:12:00,
2013-01-22 11:17:00,7.7,1.2,30.20,WNW,290,32.0,40.0,74,0.00,,,0.00,meteohub,2013-01-22 16:17:00,
2013-01-22 11:22:00,7.5,1.2,30.20,WNW,298,28.0,40.0,75,0.00,,,0.00,meteohub,2013-01-22 16:22:00,
2013-01-22 11:28:00,7.9,1.6,30.19,WNW,286,31.0,37.0,75,0.00,,,0.00,meteohub,2013-01-22 16:28:00,
2013-01-22 11:33:00,8.1,1.2,30.19,WNW,297,30.0,36.0,73,0.00,,,0.00,meteohub,2013-01-22 16:33:00,
2013-01-22 11:38:00,8.1,1.2,30.20,West,281,30.0,37.0,73,0.00,,,0.00,meteohub,2013-01-22 16:38:00,
2013-01-22 11:43:00,7.9,0.7,30.19,WNW,284,26.0,37.0,72,0.00,,,0.00,meteohub,2013-01-22 16:43:00,
2013-01-22 11:48:00,8.1,1.2,30.19,WNW,284,27.0,34.0,73,0.00,,,0.00,meteohub,2013-01-22 16:48:00,
2013-01-22 11:53:00,7.7,1.2,30.19,WNW,301,24.0,34.0,74,0.00,,,0.00,meteohub,2013-01-22 16:53:00,
2013-01-22 11:59:00,8.1,0.9,30.19,West,273,31.0,34.0,72,0.00,,,0.00,meteohub,2013-01-22 16:59:00,
2013-01-22 12:04:00,8.2,1.0,30.19,West,281,33.0,33.0,72,0.00,,,0.00,meteohub,2013-01-22 17:04:00,
2013-01-22 12:09:00,8.2,1.9,30.19,WNW,289,19.0,34.0,75,0.00,,,0.00,meteohub,2013-01-22 17:09:00,
2013-01-22 12:14:00,8.2,1.8,30.19,WNW,292,22.0,34.0,74,0.00,,,0.00,meteohub,2013-01-22 17:14:00,
2013-01-22 12:19:00,8.2,2.3,30.19,WNW,290,26.0,34.0,76,0.00,,,0.00,meteohub,2013-01-22 17:19:00,
2013-01-22 12:24:00,8.6,2.7,30.19,WNW,294,25.0,33.0,76,0.00,,,0.00,meteohub,2013-01-22 17:24:00,
2013-01-22 12:29:00,8.1,1.2,30.18,WNW,297,25.0,33.0,73,0.00,,,0.00,meteohub,2013-01-22 17:29:00,
2013-01-22 12:34:00,8.6,1.8,30.18,WNW,298,27.0,34.0,73,0.00,,,0.00,meteohub,2013-01-22 17:34:00,
2013-01-22 12:39:00,8.6,1.9,30.19,WNW,296,31.0,34.0,74,0.00,,,0.00,meteohub,2013-01-22 17:39:00,
2013-01-22 12:44:00,8.4,0.7,30.18,West,281,27.0,34.0,70,0.00,,,0.00,meteohub,2013-01-22 17:44:00,
2013-01-22 12:49:00,8.6,0.5,30.18,WNW,288,26.0,39.0,69,0.00,,,0.00,meteohub,2013-01-22 17:49:00,
2013-01-22 12:54:00,8.4,1.0,30.18,West,281,21.0,39.0,71,0.00,,,0.00,meteohub,2013-01-22 17:54:00,
2013-01-22 12:59:00,8.2,1.9,30.18,WNW,294,24.0,35.0,75,0.00,,,0.00,meteohub,2013-01-22 17:59:00,
2013-01-22 13:04:00,8.8,3.4,30.17,WNW,298,28.0,35.0,78,0.00,,,0.00,meteohub,2013-01-22 18:04:00,
2013-01-22 13:09:00,8.4,3.0,30.17,West,278,29.0,34.0,78,0.00,,,0.00,meteohub,2013-01-22 18:09:00,
2013-01-22 13:14:00,9.0,4.3,30.17,WNW,290,31.0,33.0,81,0.00,,,0.00,meteohub,2013-01-22 18:14:00,
2013-01-22 13:20:00,8.8,3.9,30.17,West,275,33.0,36.0,80,0.00,,,0.00,meteohub,2013-01-22 18:20:00,
2013-01-22 13:25:00,8.4,3.6,30.17,West,263,20.0,36.0,80,0.00,,,0.00,meteohub,2013-01-22 18:25:00,
2013-01-22 13:30:00,9.0,4.3,30.17,WNW,291,20.0,36.0,81,0.00,,,0.00,meteohub,2013-01-22 18:30:00,
2013-01-22 13:35:00,9.0,4.3,30.17,West,277,26.0,36.0,81,0.00,,,0.00,meteohub,2013-01-22 18:35:00,
2013-01-22 13:40:00,9.0,5.2,30.17,WNW,297,26.0,33.0,84,0.00,,,0.00,meteohub,2013-01-22 18:40:00,
2013-01-22 13:45:00,8.8,5.5,30.17,WNW,295,36.0,36.0,86,0.00,,,0.00,meteohub,2013-01-22 18:45:00,
2013-01-22 13:50:00,9.0,5.7,30.17,WNW,289,22.0,36.0,86,0.00,,,0.00,meteohub,2013-01-22 18:50:00,
2013-01-22 13:55:00,9.0,5.9,30.17,WNW,284,26.0,36.0,87,0.00,,,0.00,meteohub,2013-01-22 18:55:00,
2013-01-22 14:00:00,8.4,5.4,30.17,WNW,287,32.0,36.0,87,0.00,,,0.00,meteohub,2013-01-22 19:00:00,
2013-01-22 14:06:00,9.1,6.3,30.17,WNW,295,30.0,36.0,88,0.00,,,0.00,meteohub,2013-01-22 19:06:00,
2013-01-22 14:11:00,9.0,6.1,30.17,West,274,31.0,37.0,88,0.00,,,0.00,meteohub,2013-01-22 19:11:00,
2013-01-22 14:16:00,9.1,6.3,30.17,West,277,28.0,37.0,88,0.00,,,0.00,meteohub,2013-01-22 19:16:00,
2013-01-22 14:21:00,9.1,6.3,30.17,WNW,296,22.0,37.0,88,0.00,,,0.00,meteohub,2013-01-22 19:21:00,
2013-01-22 14:26:00,9.0,6.1,30.18,WNW,284,26.0,34.0,88,0.00,,,0.00,meteohub,2013-01-22 19:26:00,
2013-01-22 14:31:00,8.8,5.9,30.18,West,273,29.0,35.0,88,0.00,,,0.00,meteohub,2013-01-22 19:31:00,
2013-01-22 14:36:00,9.1,6.6,30.18,West,281,31.0,35.0,89,0.00,,,0.00,meteohub,2013-01-22 19:36:00,
2013-01-22 14:41:00,9.3,6.8,30.18,WNW,285,31.0,35.0,89,0.00,,,0.00,meteohub,2013-01-22 19:41:00,
2013-01-22 14:47:00,9.0,6.4,30.18,WNW,292,27.0,36.0,89,0.00,,,0.00,meteohub,2013-01-22 19:47:00,
2013-01-22 14:52:00,9.0,6.4,30.18,West,271,28.0,36.0,89,0.00,,,0.00,meteohub,2013-01-22 19:52:00,
2013-01-22 14:57:00,9.0,6.4,30.18,West,274,23.0,37.0,89,0.00,,,0.00,meteohub,2013-01-22 19:57:00,
2013-01-22 15:02:00,9.1,6.3,30.18,WNW,284,21.0,37.0,88,0.00,,,0.00,meteohub,2013-01-22 20:02:00,
2013-01-22 15:07:00,9.7,6.6,30.18,WNW,282,26.0,37.0,87,0.00,,,0.00,meteohub,2013-01-22 20:07:00,
2013-01-22 15:12:00,9.9,6.3,30.18,WNW,288,29.0,35.0,85,0.00,,,0.00,meteohub,2013-01-22 20:12:00,
2013-01-22 15:17:00,9.9,6.4,30.18,West,281,20.0,36.0,86,0.00,,,0.00,meteohub,2013-01-22 20:17:00,
2013-01-22 15:23:00,9.9,6.3,30.18,West,281,22.0,36.0,85,0.00,,,0.00,meteohub,2013-01-22 20:23:00,
2013-01-22 15:28:00,10.0,6.4,30.19,WNW,288,26.0,38.0,85,0.00,,,0.00,meteohub,2013-01-22 20:28:00,
2013-01-22 15:33:00,9.7,6.6,30.19,West,281,32.0,38.0,87,0.00,,,0.00,meteohub,2013-01-22 20:33:00,
2013-01-22 15:38:00,9.9,7.0,30.19,WNW,294,22.0,37.0,88,0.00,,,0.00,meteohub,2013-01-22 20:38:00,
2013-01-22 15:43:00,9.7,6.8,30.19,WNW,283,32.0,37.0,88,0.00,,,0.00,meteohub,2013-01-22 20:43:00,
2013-01-22 15:48:00,9.7,6.8,30.19,WNW,292,24.0,35.0,88,0.00,,,0.00,meteohub,2013-01-22 20:48:00,
2013-01-22 15:53:00,10.2,7.3,30.19,WNW,295,33.0,35.0,88,0.00,,,0.00,meteohub,2013-01-22 20:53:00,
2013-01-22 15:58:00,10.2,7.2,30.19,WNW,288,31.0,35.0,87,0.00,,,0.00,meteohub,2013-01-22 20:58:00,
2013-01-22 16:03:00,11.1,7.7,30.19,West,267,32.0,36.0,86,0.00,,,0.00,meteohub,2013-01-22 21:03:00,
2013-01-22 16:08:00,10.9,6.6,30.19,West,279,30.0,36.0,82,0.00,,,0.00,meteohub,2013-01-22 21:08:00,
2013-01-22 16:13:00,11.1,6.4,30.19,West,281,27.0,36.0,81,0.00,,,0.00,meteohub,2013-01-22 21:13:00,
2013-01-22 16:18:00,10.9,5.9,30.20,WNW,291,24.0,36.0,80,0.00,,,0.00,meteohub,2013-01-22 21:18:00,
2013-01-22 16:24:00,11.1,5.9,30.19,WNW,292,27.0,35.0,79,0.00,,,0.00,meteohub,2013-01-22 21:24:00,
2013-01-22 16:29:00,11.3,5.5,30.19,WNW,288,28.0,37.0,77,0.00,,,0.00,meteohub,2013-01-22 21:29:00,
2013-01-22 16:32:00,11.3,5.5,30.19,WNW,300,28.0,37.0,77,0.00,,,0.00,meteohub,2013-01-22 21:32:00,
2013-01-22 16:37:00,11.8,6.3,30.19,NW,307,29.0,37.0,78,0.00,,,0.00,meteohub,2013-01-22 21:37:00,
2013-01-22 16:42:00,11.1,5.0,30.19,WNW,294,28.0,36.0,76,0.00,,,0.00,meteohub,2013-01-22 21:42:00,
2013-01-22 16:47:00,11.7,7.0,30.19,WNW,296,26.0,38.0,81,0.00,,,0.00,meteohub,2013-01-22 21:47:00,
2013-01-22 16:52:00,11.1,6.4,30.19,WNW,296,28.0,38.0,81,0.00,,,0.00,meteohub,2013-01-22 21:52:00,
2013-01-22 16:57:00,11.5,6.4,30.19,WNW,284,31.0,36.0,80,0.00,,,0.00,meteohub,2013-01-22 21:57:00,
2013-01-22 17:03:00,11.7,7.0,30.19,WNW,297,28.0,38.0,81,0.00,,,0.00,meteohub,2013-01-22 22:03:00,
2013-01-22 17:08:00,10.9,7.0,30.19,WNW,283,24.0,38.0,84,0.00,,,0.00,meteohub,2013-01-22 22:08:00,
2013-01-22 17:13:00,11.1,8.1,30.20,West,269,27.0,38.0,87,0.00,,,0.00,meteohub,2013-01-22 22:13:00,
2013-01-22 17:18:00,10.9,8.1,30.20,West,279,22.0,36.0,88,0.00,,,0.00,meteohub,2013-01-22 22:18:00,
2013-01-22 17:23:00,11.1,8.6,30.20,WNW,283,31.0,36.0,89,0.00,,,0.00,meteohub,2013-01-22 22:23:00,
2013-01-22 17:28:00,10.9,8.6,30.19,West,273,25.0,34.0,90,0.00,,,0.00,meteohub,2013-01-22 22:28:00,
2013-01-22 17:33:00,10.8,8.4,30.20,West,277,26.0,34.0,90,0.00,,,0.00,meteohub,2013-01-22 22:33:00,
2013-01-22 17:38:00,10.2,7.9,30.20,West,273,20.0,37.0,90,0.00,,,0.00,meteohub,2013-01-22 22:38:00,
2013-01-22 17:43:00,10.8,8.4,30.21,WNW,290,24.0,37.0,90,0.00,,,0.00,meteohub,2013-01-22 22:43:00,
2013-01-22 17:48:00,11.1,9.0,30.21,WNW,284,29.0,37.0,91,0.00,,,0.00,meteohub,2013-01-22 22:48:00,
2013-01-22 17:53:00,10.9,8.8,30.20,WNW,288,23.0,36.0,91,0.00,,,0.00,meteohub,2013-01-22 22:53:00,
2013-01-22 17:58:00,11.3,9.1,30.21,West,274,31.0,34.0,91,0.00,,,0.00,meteohub,2013-01-22 22:58:00,
2013-01-22 18:03:00,10.9,8.8,30.21,WNW,285,21.0,34.0,91,0.00,,,0.00,meteohub,2013-01-22 23:03:00,
2013-01-22 18:08:00,11.5,9.3,30.20,WNW,286,25.0,32.0,91,0.00,,,0.00,meteohub,2013-01-22 23:08:00,
2013-01-22 18:13:00,11.5,9.3,30.21,West,276,26.0,32.0,91,0.00,,,0.00,meteohub,2013-01-22 23:13:00,
2013-01-22 18:19:00,11.7,9.5,30.21,West,280,26.0,32.0,91,0.00,,,0.00,meteohub,2013-01-22 23:19:00,
2013-01-22 18:24:00,11.1,9.0,30.21,WNW,288,26.0,33.0,91,0.00,,,0.00,meteohub,2013-01-22 23:24:00,
2013-01-22 18:29:00,11.5,9.3,30.21,WNW,290,31.0,33.0,91,0.00,,,0.00,meteohub,2013-01-22 23:29:00,
2013-01-22 18:34:00,11.7,9.5,30.21,WNW,290,23.0,33.0,91,0.00,,,0.00,meteohub,2013-01-22 23:34:00,
2013-01-22 18:39:00,11.7,9.3,30.21,WNW,290,20.0,33.0,90,0.00,,,0.00,meteohub,2013-01-22 23:39:00,
2013-01-22 18:44:00,11.7,9.3,30.22,WNW,290,27.0,33.0,90,0.00,,,0.00,meteohub,2013-01-22 23:44:00,
2013-01-22 18:49:00,11.3,9.0,30.22,WNW,299,24.0,33.0,90,0.00,,,0.00,meteohub,2013-01-22 23:49:00,
2013-01-22 18:54:00,11.7,9.3,30.22,WNW,290,25.0,32.0,90,0.00,,,0.00,meteohub,2013-01-22 23:54:00,
2013-01-22 18:59:00,11.7,9.3,30.22,WNW,291,24.0,33.0,90,0.00,,,0.00,meteohub,2013-01-22 23:59:00,
2013-01-22 19:04:00,11.5,9.3,30.22,WNW,284,25.0,33.0,91,0.00,,,0.00,meteohub,2013-01-23 00:04:00,
2013-01-22 19:09:00,12.0,9.9,30.21,WNW,287,29.0,34.0,91,0.00,,,0.00,meteohub,2013-01-23 00:09:00,
2013-01-22 19:14:00,11.7,9.3,30.22,West,276,23.0,34.0,90,0.00,,,0.00,meteohub,2013-01-23 00:14:00,
2013-01-22 19:20:00,11.8,9.7,30.22,WNW,284,24.0,34.0,91,0.00,,,0.00,meteohub,2013-01-23 00:20:00,
2013-01-22 19:25:00,12.0,9.9,30.21,WNW,294,25.0,33.0,91,0.00,,,0.00,meteohub,2013-01-23 00:25:00,
2013-01-22 19:30:00,11.8,9.7,30.21,WNW,286,21.0,32.0,91,0.00,,,0.00,meteohub,2013-01-23 00:30:00,
2013-01-22 19:35:00,11.8,9.7,30.21,West,277,24.0,31.0,91,0.00,,,0.00,meteohub,2013-01-23 00:35:00,
2013-01-22 19:40:00,11.8,9.7,30.21,West,278,23.0,32.0,91,0.00,,,0.00,meteohub,2013-01-23 00:40:00,
2013-01-22 19:45:00,12.0,9.9,30.21,WNW,296,25.0,32.0,91,0.00,,,0.00,meteohub,2013-01-23 00:45:00,
2013-01-22 19:50:00,12.0,9.9,30.21,WNW,282,25.0,34.0,91,0.00,,,0.00,meteohub,2013-01-23 00:50:00,
2013-01-22 19:55:00,12.0,9.9,30.21,WNW,286,29.0,33.0,91,0.00,,,0.00,meteohub,2013-01-23 00:55:00,
2013-01-22 20:00:00,12.4,10.0,30.21,WNW,290,27.0,34.0,90,0.00,,,0.00,meteohub,2013-01-23 01:00:00,
2013-01-22 20:05:00,12.7,10.0,30.21,West,270,26.0,34.0,89,0.00,,,0.00,meteohub,2013-01-23 01:05:00,
2013-01-22 20:10:00,12.6,9.9,30.21,WNW,288,22.0,32.0,89,0.00,,,0.00,meteohub,2013-01-23 01:10:00,
2013-01-22 20:15:00,12.7,9.7,30.21,WNW,293,27.0,31.0,87,0.00,,,0.00,meteohub,2013-01-23 01:15:00,
2013-01-22 20:21:00,12.7,9.3,30.21,WNW,293,33.0,33.0,86,0.00,,,0.00,meteohub,2013-01-23 01:21:00,
2013-01-22 20:26:00,12.7,9.1,30.22,WNW,300,26.0,33.0,85,0.00,,,0.00,meteohub,2013-01-23 01:26:00,
2013-01-22 20:31:00,12.7,8.2,30.22,WNW,292,25.0,33.0,82,0.00,,,0.00,meteohub,2013-01-23 01:31:00,
2013-01-22 20:37:00,13.1,7.9,30.22,WNW,302,26.0,33.0,79,0.00,,,0.00,meteohub,2013-01-23 01:37:00,
2013-01-22 20:42:00,12.9,7.2,30.22,WNW,293,26.0,33.0,77,0.00,,,0.00,meteohub,2013-01-23 01:42:00,
2013-01-22 20:47:00,12.9,6.3,30.22,WNW,292,27.0,31.0,74,0.00,,,0.00,meteohub,2013-01-23 01:47:00,
2013-01-22 20:52:00,13.1,6.4,30.22,WNW,300,24.0,31.0,74,0.00,,,0.00,meteohub,2013-01-23 01:52:00,
2013-01-22 20:57:00,13.1,6.6,30.22,WNW,293,31.0,33.0,75,0.00,,,0.00,meteohub,2013-01-23 01:57:00,
2013-01-22 21:02:00,12.9,7.3,30.22,WNW,286,23.0,34.0,78,0.00,,,0.00,meteohub,2013-01-23 02:02:00,
2013-01-22 21:07:00,12.6,7.3,30.22,WNW,290,18.0,34.0,79,0.00,,,0.00,meteohub,2013-01-23 02:07:00,
2013-01-22 21:12:00,13.1,8.1,30.22,WNW,296,29.0,34.0,80,0.00,,,0.00,meteohub,2013-01-23 02:12:00,
2013-01-22 21:17:00,13.1,7.3,30.22,NW,309,25.0,33.0,77,0.00,,,0.00,meteohub,2013-01-23 02:17:00,
2013-01-22 21:22:00,13.3,7.3,30.22,NW,305,29.0,33.0,77,0.00,,,0.00,meteohub,2013-01-23 02:22:00,
2013-01-22 21:27:00,12.9,7.9,30.22,NW,310,23.0,32.0,80,0.00,,,0.00,meteohub,2013-01-23 02:27:00,
2013-01-22 21:32:00,12.6,7.0,30.22,WNW,289,30.0,33.0,78,0.00,,,0.00,meteohub,2013-01-23 02:32:00,
2013-01-22 21:37:00,12.2,7.7,30.22,NW,306,23.0,34.0,82,0.00,,,0.00,meteohub,2013-01-23 02:37:00,
2013-01-22 21:42:00,12.4,7.9,30.22,NW,319,24.0,34.0,82,0.00,,,0.00,meteohub,2013-01-23 02:42:00,
2013-01-22 21:47:00,12.9,8.2,30.22,NW,310,21.0,34.0,81,0.00,,,0.00,meteohub,2013-01-23 02:47:00,
2013-01-22 21:52:00,12.7,7.2,30.22,NW,319,29.0,33.0,78,0.00,,,0.00,meteohub,2013-01-23 02:52:00,
2013-01-22 21:58:00,12.9,6.8,30.21,NW,308,23.0,33.0,76,0.00,,,0.00,meteohub,2013-01-23 02:58:00,
2013-01-22 22:03:00,13.1,6.6,30.21,NW,312,28.0,32.0,75,0.00,,,0.00,meteohub,2013-01-23 03:03:00,
2013-01-22 22:08:00,12.9,7.3,30.21,NW,306,20.0,31.0,78,0.00,,,0.00,meteohub,2013-01-23 03:08:00,
2013-01-22 22:13:00,12.6,7.3,30.21,NW,310,25.0,29.0,79,0.00,,,0.00,meteohub,2013-01-23 03:13:00,
2013-01-22 22:18:00,12.7,6.6,30.21,NW,319,15.0,30.0,76,0.00,,,0.00,meteohub,2013-01-23 03:18:00,
2013-01-22 22:23:00,12.9,7.2,30.21,WNW,301,23.0,30.0,77,0.00,,,0.00,meteohub,2013-01-23 03:23:00,
2013-01-22 22:28:00,12.9,7.7,30.21,WNW,292,17.0,30.0,79,0.00,,,0.00,meteohub,2013-01-23 03:28:00,
2013-01-22 22:33:00,12.7,7.7,30.21,NW,313,25.0,29.0,80,0.00,,,0.00,meteohub,2013-01-23 03:33:00,
2013-01-22 22:38:00,12.9,7.9,30.21,NW,321,22.0,29.0,80,0.00,,,0.00,meteohub,2013-01-23 03:38:00,
2013-01-22 22:43:00,12.7,7.7,30.21,NW,321,23.0,30.0,80,0.00,,,0.00,meteohub,2013-01-23 03:43:00,
2013-01-22 22:48:00,12.9,7.7,30.21,NW,309,21.0,30.0,79,0.00,,,0.00,meteohub,2013-01-23 03:48:00,
2013-01-22 22:53:00,12.9,7.3,30.21,NW,309,23.0,32.0,78,0.00,,,0.00,meteohub,2013-01-23 03:53:00,
2013-01-22 22:59:00,12.6,7.3,30.21,NW,315,18.0,32.0,79,0.00,,,0.00,meteohub,2013-01-23 03:59:00,
2013-01-22 23:04:00,12.7,7.2,30.21,NW,314,21.0,33.0,78,0.00,,,0.00,meteohub,2013-01-23 04:04:00,
2013-01-22 23:09:00,12.4,8.2,30.21,NW,311,20.0,33.0,83,0.00,,,0.00,meteohub,2013-01-23 04:09:00,
2013-01-22 23:14:00,12.4,8.8,30.21,WNW,302,26.0,33.0,85,0.00,,,0.00,meteohub,2013-01-23 04:14:00,
2013-01-22 23:19:00,12.4,9.3,30.21,WNW,300,24.0,33.0,87,0.00,,,0.00,meteohub,2013-01-23 04:19:00,
2013-01-22 23:24:00,12.6,9.0,30.20,WNW,297,25.0,32.0,85,0.00,,,0.00,meteohub,2013-01-23 04:24:00,
2013-01-22 23:29:00,12.7,8.6,30.20,NW,314,22.0,29.0,83,0.00,,,0.00,meteohub,2013-01-23 04:29:00,
2013-01-22 23:34:00,12.7,8.8,30.20,NW,307,27.0,30.0,84,0.00,,,0.00,meteohub,2013-01-23 04:34:00,
2013-01-22 23:39:00,12.7,8.6,30.21,NW,322,26.0,30.0,83,0.00,,,0.00,meteohub,2013-01-23 04:39:00,
2013-01-22 23:44:00,12.7,8.6,30.20,NW,305,23.0,31.0,83,0.00,,,0.00,meteohub,2013-01-23 04:44:00,
2013-01-22 23:49:00,12.6,8.1,30.20,WNW,300,25.0,31.0,82,0.00,,,0.00,meteohub,2013-01-23 04:49:00,
2013-01-22 23:54:00,12.0,8.1,30.20,NW,318,18.0,31.0,84,0.00,,,0.00,meteohub,2013-01-23 04:54:00,
2013-01-22 23:59:00,12.4,8.2,30.20,NW,318,26.0,33.0,83,0.00,,,0.00,meteohub,2013-01-23 04:59:00,